Time;durP1;ratioP1;P1;durP2;ratioP2;P2;SDS_P1;SDS_P2;PMS_P1;PMS_P2;Temp;Humidity;BMP_temperature;BMP_pressure;BME280_temperature;BME280_humidity;BME280_pressure;Samples;Min_cycle;Max_cycle;Signal;HPM_P1;HPM_P2
2022/09/30 00:00:55;;;;;;;2.10;2.00;;;;;;;4.96;100.00;94761.75;6177540;23;20005;-77
2022/09/30 00:03:20;;;;;;;2.13;2.03;;;;;;;4.96;100.00;94759.13;6176930;23;20001;-78
2022/09/30 00:05:46;;;;;;;2.08;1.98;;;;;;;4.98;100.00;94765.03;6178100;22;20012;-68
2022/09/30 00:08:12;;;;;;;3.03;2.83;;;;;;;5.05;100.00;94765.34;6177176;23;20066;-68
2022/09/30 00:10:37;;;;;;;2.55;2.35;;;;;;;5.12;100.00;94769.09;6177322;23;20603;-68
2022/09/30 00:13:03;;;;;;;3.45;2.78;;;;;;;5.18;100.00;94774.72;6177376;23;20068;-68
2022/09/30 00:15:28;;;;;;;2.28;2.17;;;;;;;5.23;100.00;94775.19;6176335;23;20005;-68
2022/09/30 00:17:54;;;;;;;2.63;2.42;;;;;;;5.25;100.00;94781.09;6176583;23;20024;-68
2022/09/30 00:20:19;;;;;;;2.30;2.20;;;;;;;5.33;100.00;94786.47;6177364;23;20054;-64
2022/09/30 00:22:45;;;;;;;3.80;2.40;;;;;;;5.41;100.00;94770.97;6177679;23;20080;-77
2022/09/30 00:25:10;;;;;;;2.60;2.40;;;;;;;5.50;100.00;94777.19;6177247;23;20075;-68
2022/09/30 00:27:36;;;;;;;2.30;2.17;;;;;;;5.56;100.00;94773.22;6177175;23;20385;-68
2022/09/30 00:30:02;;;;;;;2.45;2.25;;;;;;;5.63;100.00;94778.72;6177235;23;20432;-68
2022/09/30 00:32:27;;;;;;;2.47;2.10;;;;;;;5.64;100.00;94781.22;6177123;22;20447;-68
2022/09/30 00:34:53;;;;;;;2.15;2.05;;;;;;;5.72;100.00;94783.13;6176816;23;20008;-68
2022/09/30 00:37:18;;;;;;;2.40;2.30;;;;;;;5.73;100.00;94785.63;6177572;23;20038;-68
2022/09/30 00:39:43;;;;;;;3.08;2.35;;;;;;;5.74;100.00;94782.06;6176863;23;20443;-77
2022/09/30 00:42:13;;;;;;;1.92;1.83;;;;;;;5.82;100.00;94789.22;6176449;23;20029;-68
2022/09/30 00:44:52;;;;;;;2.22;2.13;;;;;;;5.88;100.00;94793.09;6177224;23;20080;-68
2022/09/30 00:47:27;;;;;;;2.80;2.60;;;;;;;5.94;100.00;94789.94;6177278;23;20005;-68
2022/09/30 00:49:56;;;;;;;2.90;2.70;;;;;;;5.99;100.00;94786.91;6176799;23;20011;-68
2022/09/30 00:52:22;;;;;;;6.13;2.53;;;;;;;6.02;100.00;94790.09;6177516;23;20072;-68
2022/09/30 00:54:49;;;;;;;2.50;2.40;;;;;;;6.05;100.00;94790.78;6177205;23;20066;-68
2022/09/30 00:57:15;;;;;;;2.22;2.13;;;;;;;6.08;100.00;94785.28;6177014;23;20054;-68
2022/09/30 00:59:45;;;;;;;4.15;2.10;;;;;;;6.08;100.00;94793.13;6176774;23;20005;-62
2022/09/30 01:02:13;;;;;;;1.90;1.80;;;;;;;6.07;100.00;94784.47;6150609;22;20457;-63
2022/09/30 01:04:40;;;;;;;1.50;1.50;;;;;;;6.09;100.00;94779.13;6176883;23;20035;-64
2022/09/30 01:07:07;;;;;;;1.58;1.50;;;;;;;6.10;100.00;94791.22;6177163;23;20008;-63
2022/09/30 01:09:35;;;;;;;1.55;1.55;;;;;;;6.13;100.00;94785.72;6176840;23;20017;-64
2022/09/30 01:12:08;;;;;;;1.85;1.75;;;;;;;6.14;100.00;94787.38;6176786;23;20005;-64
2022/09/30 01:14:36;;;;;;;1.90;1.80;;;;;;;6.18;100.00;94798.34;6176838;23;20072;-64
2022/09/30 01:17:09;;;;;;;1.80;1.70;;;;;;;6.21;100.00;94798.91;6176784;23;20016;-64
2022/09/30 01:19:57;;;;;;;1.60;1.50;;;;;;;6.24;100.00;94796.03;6177083;23;20056;-68
2022/09/30 01:22:50;;;;;;;1.80;1.70;;;;;;;6.27;100.00;94797.56;6177229;23;20009;-61
2022/09/30 01:25:18;;;;;;;1.80;1.70;;;;;;;6.30;100.00;94803.34;6176714;23;20008;-61
2022/09/30 01:28:08;;;;;;;2.63;1.95;;;;;;;6.34;100.00;94793.41;6175925;23;20001;-62
2022/09/30 01:30:54;;;;;;;1.88;1.77;;;;;;;6.35;100.00;94795.06;6176309;23;20450;-62
2022/09/30 01:33:28;;;;;;;1.60;1.50;;;;;;;6.36;100.00;94795.91;6176832;23;20009;-62
2022/09/30 01:35:59;;;;;;;2.75;1.80;;;;;;;6.37;100.00;94798.38;6176565;23;20004;-62
2022/09/30 01:38:28;;;;;;;5.70;1.80;;;;;;;6.39;100.00;94798.25;6177094;23;20008;-76
2022/09/30 01:41:11;;;;;;;2.15;1.77;;;;;;;6.38;100.00;94796.59;6179890;23;20034;-64
2022/09/30 01:43:40;;;;;;;4.07;1.83;;;;;;;6.36;100.00;94795.91;6176751;23;20001;-63
2022/09/30 01:46:19;;;;;;;1.80;1.70;;;;;;;6.37;100.00;94803.59;6176690;23;20062;-63
2022/09/30 01:49:07;;;;;;;1.65;1.55;;;;;;;6.38;100.00;94805.25;6176439;23;20008;-63
2022/09/30 01:51:36;;;;;;;1.38;1.38;;;;;;;6.39;100.00;94798.25;6175838;23;20005;-64
2022/09/30 01:54:09;;;;;;;1.58;1.50;;;;;;;6.39;100.00;94795.63;6176577;23;20009;-63
2022/09/30 01:56:39;;;;;;;1.63;1.52;;;;;;;6.41;100.00;94801.53;6178837;23;20027;-62
2022/09/30 01:59:10;;;;;;;4.45;1.77;;;;;;;6.41;100.00;94794.53;6176427;23;19997;-76
2022/09/30 02:01:46;;;;;;;2.15;1.88;;;;;;;6.43;100.00;94797.00;6176391;23;20003;-64
2022/09/30 02:04:19;;;;;;;2.53;2.42;;;;;;;6.47;100.00;94794.94;6176274;23;19997;-63
2022/09/30 02:06:51;;;;;;;1.98;1.88;;;;;;;6.44;100.00;94796.88;6149172;22;20001;-64
2022/09/30 02:09:36;;;;;;;2.30;2.20;;;;;;;6.42;100.00;94800.56;6176575;23;20009;-64
2022/09/30 02:12:06;;;;;;;2.47;1.75;;;;;;;6.42;100.00;94806.66;6177997;22;20008;-63
2022/09/30 02:14:39;;;;;;;2.40;1.83;;;;;;;6.39;100.00;94806.88;6177523;23;19997;-64
2022/09/30 02:17:47;;;;;;;1.17;1.17;;;;;;;6.38;100.00;94801.81;6177869;23;20017;-67
2022/09/30 02:20:21;;;;;;;2.22;1.50;;;;;;;6.37;100.00;94797.56;6057839;23;20065;-61
2022/09/30 02:22:58;;;;;;;1.30;1.30;;;;;;;6.38;100.00;94799.19;6160260;23;20089;-61
2022/09/30 02:25:31;;;;;;;1.40;1.40;;;;;;;6.34;100.00;94790.81;6177832;23;20083;-61
2022/09/30 02:28:06;;;;;;;5.05;1.40;;;;;;;6.33;100.00;94789.16;6177753;23;20316;-61
2022/09/30 02:30:38;;;;;;;4.90;1.23;;;;;;;6.35;100.00;94789.03;6177718;23;20005;-62
2022/09/30 02:33:11;;;;;;;1.27;1.23;;;;;;;6.35;100.00;94792.44;6177422;23;20081;-61
2022/09/30 02:35:47;;;;;;;1.30;1.30;;;;;;;6.36;100.00;94790.69;6177629;23;20001;-62
2022/09/30 02:38:20;;;;;;;1.40;1.40;;;;;;;6.35;100.00;94794.25;6177721;23;20049;-62
2022/09/30 02:40:57;;;;;;;1.45;1.20;;;;;;;6.34;100.00;94801.25;6177642;23;20040;-62
2022/09/30 02:43:23;;;;;;;1.30;1.30;;;;;;;6.35;100.00;94796.88;6177055;22;20016;-62
2022/09/30 02:46:10;;;;;;;2.15;1.35;;;;;;;6.35;100.00;94796.88;6177285;22;20325;-62
2022/09/30 02:48:38;;;;;;;1.73;1.33;;;;;;;6.34;100.00;94793.41;6177977;23;20008;-62
2022/09/30 02:51:21;;;;;;;1.23;1.13;;;;;;;6.34;100.00;94792.59;6177754;23;20079;-62
2022/09/30 02:54:06;;;;;;;1.38;1.38;;;;;;;6.34;100.00;94790.81;6177982;23;19997;-58
2022/09/30 02:56:49;;;;;;;3.75;1.27;;;;;;;6.30;100.00;94787.66;6178243;23;20005;-58
2022/09/30 02:59:15;;;;;;;1.58;1.05;;;;;;;6.30;100.00;94790.28;6181954;23;20351;-75
2022/09/30 03:01:41;;;;;;;1.40;1.40;;;;;;;6.32;100.00;94781.47;6178040;23;20011;-74
2022/09/30 03:04:11;;;;;;;1.30;1.30;;;;;;;6.33;100.00;94788.34;6177881;23;20102;-75
2022/09/30 03:06:37;;;;;;;1.60;1.50;;;;;;;6.33;100.00;94790.97;6176637;23;20085;-76
2022/09/30 03:09:04;;;;;;;1.13;1.10;;;;;;;6.32;100.00;94794.53;6178142;23;20001;-73
2022/09/30 03:11:30;;;;;;;1.65;1.20;;;;;;;6.32;100.00;94797.97;6178814;23;20347;-74
2022/09/30 03:14:23;;;;;;;1.45;1.35;;;;;;;6.30;100.00;94798.13;6151924;22;20312;-64
2022/09/30 03:17:23;;;;;;;1.10;1.10;;;;;;;6.36;100.00;94801.13;6177367;23;20001;-63
2022/09/30 03:20:06;;;;;;;1.30;1.30;;;;;;;6.40;100.00;94802.50;6177074;23;20005;-62
2022/09/30 03:23:11;;;;;;;1.35;1.35;;;;;;;6.39;100.00;94799.03;6178148;23;20096;-63
2022/09/30 03:25:43;;;;;;;5.03;1.40;;;;;;;6.36;100.00;94801.94;6177953;22;20001;-63
2022/09/30 03:28:28;;;;;;;1.30;1.30;;;;;;;6.36;100.00;94799.31;6177800;23;20092;-63
2022/09/30 03:30:59;;;;;;;1.40;1.40;;;;;;;6.38;100.00;94799.19;6177433;23;20092;-63
2022/09/30 03:33:30;;;;;;;2.25;1.52;;;;;;;6.39;100.00;94801.66;6177443;23;20008;-61
2022/09/30 03:36:06;;;;;;;1.70;1.60;;;;;;;6.42;100.00;94800.56;6177935;23;20373;-63
2022/09/30 03:38:31;;;;;;;1.42;1.33;;;;;;;6.41;100.00;94801.53;6177989;23;20000;-64
2022/09/30 03:41:10;;;;;;;1.63;1.35;;;;;;;6.39;100.00;94795.63;6177771;23;20005;-64
2022/09/30 03:43:43;;;;;;;1.20;1.20;;;;;;;6.34;100.00;94803.06;6178082;23;20021;-63
2022/09/30 03:46:15;;;;;;;1.17;1.17;;;;;;;6.33;100.00;94802.22;6177499;23;20005;-64
2022/09/30 03:48:41;;;;;;;4.15;1.52;;;;;;;6.36;100.00;94801.13;6177567;23;20013;-64
2022/09/30 03:51:08;;;;;;;1.42;1.42;;;;;;;6.36;100.00;94806.38;6177732;23;20113;-64
2022/09/30 03:53:41;;;;;;;1.50;1.45;;;;;;;6.30;100.00;94805.94;6178028;23;20023;-61
2022/09/30 03:56:06;;;;;;;1.42;1.30;;;;;;;6.28;100.00;94814.88;6177739;23;20008;-66
2022/09/30 03:58:32;;;;;;;1.45;1.38;;;;;;;6.28;100.00;94810.47;6151642;23;20334;-66
2022/09/30 04:00:58;;;;;;;8.00;2.25;;;;;;;6.26;100.00;94820.25;6177547;23;20001;-66
2022/09/30 04:03:26;;;;;;;1.50;1.50;;;;;;;6.25;100.00;94830.84;6177826;23;20031;-66
2022/09/30 04:05:52;;;;;;;1.85;1.50;;;;;;;6.26;100.00;94828.09;6177785;22;20001;-66
2022/09/30 04:08:17;;;;;;;1.50;1.50;;;;;;;6.25;100.00;94831.66;6177366;23;20005;-65
2022/09/30 04:10:43;;;;;;;2.10;1.85;;;;;;;6.27;100.00;94829.72;6177653;23;19997;-67
2022/09/30 04:13:09;;;;;;;2.45;1.63;;;;;;;6.27;100.00;94840.19;6177941;23;19997;-68
2022/09/30 04:15:35;;;;;;;1.90;1.48;;;;;;;6.27;100.00;94848.03;6178167;22;20009;-69
2022/09/30 04:18:02;;;;;;;1.98;1.88;;;;;;;6.24;100.00;94844.88;6177299;23;20359;-69
2022/09/30 04:20:28;;;;;;;2.40;2.00;;;;;;;6.18;100.00;94848.84;6177491;23;20354;-69
2022/09/30 04:22:56;;;;;;;2.05;1.95;;;;;;;6.15;100.00;94851.75;6177596;23;19997;-70
2022/09/30 04:25:22;;;;;;;1.80;1.80;;;;;;;6.14;100.00;94860.53;6177279;23;20638;-70
2022/09/30 04:27:47;;;;;;;2.35;1.90;;;;;;;6.11;100.00;94859.03;6177577;23;20001;-71
2022/09/30 04:30:12;;;;;;;5.45;2.10;;;;;;;6.08;100.00;94856.69;6177020;23;20062;-71
2022/09/30 04:32:44;;;;;;;5.25;2.13;;;;;;;6.06;100.00;94853.38;6177813;23;20016;-63
2022/09/30 04:35:13;;;;;;;1.98;1.88;;;;;;;6.06;100.00;94857.75;6177946;22;20001;-66
2022/09/30 04:37:45;;;;;;;5.93;2.42;;;;;;;6.05;100.00;94856.13;6177590;23;20427;-66
2022/09/30 04:40:12;;;;;;;3.47;2.60;;;;;;;6.08;100.00;94855.84;6178150;22;20004;-65
2022/09/30 04:42:41;;;;;;;3.28;2.95;;;;;;;6.09;100.00;94862.75;6177771;23;20001;-67
2022/09/30 04:45:08;;;;;;;2.40;2.30;;;;;;;6.06;100.00;94861.22;6177307;23;20005;-67
2022/09/30 04:47:33;;;;;;;2.30;2.20;;;;;;;5.96;100.00;94858.56;6150975;22;20009;-64
2022/09/30 04:49:59;;;;;;;4.30;2.10;;;;;;;5.94;100.00;94860.47;6177429;23;20491;-64
2022/09/30 04:52:24;;;;;;;4.50;1.92;;;;;;;5.92;100.00;94858.94;6177593;23;20320;-61
2022/09/30 04:54:49;;;;;;;3.08;2.78;;;;;;;5.93;100.00;94869.28;6177416;23;20009;-62
2022/09/30 04:57:15;;;;;;;2.35;2.15;;;;;;;5.97;100.00;94868.03;6177705;23;20042;-62
2022/09/30 04:59:42;;;;;;;2.92;2.17;;;;;;;5.99;100.00;94879.19;6177465;23;19997;-62
2022/09/30 05:02:08;;;;;;;2.15;2.05;;;;;;;6.02;100.00;94888.59;6177087;23;20397;-61
2022/09/30 05:04:33;;;;;;;2.75;2.35;;;;;;;6.04;100.00;94885.81;6177306;23;20001;-62
2022/09/30 05:07:00;;;;;;;2.75;2.55;;;;;;;6.00;100.00;94893.91;6176978;23;20058;-62
2022/09/30 05:09:26;;;;;;;2.30;2.20;;;;;;;6.05;100.00;94892.69;6177496;23;20342;-60
2022/09/30 05:11:52;;;;;;;2.78;2.10;;;;;;;6.07;100.00;94889.00;6177354;23;20001;-57
2022/09/30 05:14:17;;;;;;;2.40;2.20;;;;;;;6.06;100.00;94896.97;6177187;22;20042;-64
2022/09/30 05:16:42;;;;;;;2.50;2.40;;;;;;;6.06;100.00;94904.81;6177274;23;19998;-64
2022/09/30 05:19:08;;;;;;;3.38;2.58;;;;;;;6.07;100.00;94920.34;6177273;23;20346;-64
2022/09/30 05:21:34;;;;;;;3.03;2.83;;;;;;;6.09;100.00;94926.28;6177150;23;20001;-64
2022/09/30 05:24:00;;;;;;;4.00;2.40;;;;;;;6.12;100.00;94926.00;6151013;22;20351;-64
2022/09/30 05:26:25;;;;;;;2.35;2.25;;;;;;;6.13;100.00;94922.44;6176718;23;20001;-63
2022/09/30 05:28:51;;;;;;;4.25;2.72;;;;;;;6.13;100.00;94919.00;6177077;23;20165;-72
2022/09/30 05:31:16;;;;;;;5.15;3.45;;;;;;;6.08;100.00;94918.56;6177055;23;20028;-62
2022/09/30 05:33:41;;;;;;;3.50;3.20;;;;;;;6.09;100.00;94920.25;6177278;23;19997;-62
2022/09/30 05:36:10;;;;;;;3.85;3.17;;;;;;;6.10;100.00;94925.31;6177035;23;20010;-62
2022/09/30 05:38:36;;;;;;;3.22;2.92;;;;;;;6.13;100.00;94932.06;6177100;23;19993;-62
2022/09/30 05:41:10;;;;;;;3.95;3.63;;;;;;;6.15;100.00;94932.78;6176555;23;20084;-62
2022/09/30 05:43:37;;;;;;;4.88;4.38;;;;;;;6.15;100.00;94933.56;6176187;23;20431;-62
2022/09/30 05:46:02;;;;;;;3.30;3.10;;;;;;;6.17;100.00;94933.47;6176814;23;20391;-62
2022/09/30 05:48:28;;;;;;;3.25;2.92;;;;;;;6.20;100.00;94935.00;6176117;23;20092;-69
2022/09/30 05:50:56;;;;;;;4.55;2.78;;;;;;;6.20;100.00;94946.25;6177464;23;20007;-64
2022/09/30 05:53:22;;;;;;;2.78;2.60;;;;;;;6.22;100.00;94943.53;6178124;23;20001;-63
2022/09/30 05:55:49;;;;;;;3.40;3.20;;;;;;;6.19;100.00;94951.59;6176771;23;20026;-63
2022/09/30 05:58:15;;;;;;;3.45;3.17;;;;;;;6.15;100.00;94953.69;6176932;23;20001;-64
2022/09/30 06:00:43;;;;;;;3.88;3.58;;;;;;;6.18;100.00;94961.25;6176179;23;20001;-62
2022/09/30 06:03:08;;;;;;;3.75;3.55;;;;;;;6.14;100.00;94957.25;6175709;23;20458;-62
2022/09/30 06:05:34;;;;;;;3.70;3.45;;;;;;;6.16;100.00;94958.75;6175973;23;20553;-64
2022/09/30 06:07:59;;;;;;;4.22;3.30;;;;;;;6.14;100.00;94962.47;6175660;23;20350;-54
2022/09/30 06:10:25;;;;;;;4.80;3.10;;;;;;;6.16;100.00;94960.56;6175670;23;20438;-60
2022/09/30 06:12:51;;;;;;;3.58;3.38;;;;;;;6.22;100.00;94957.41;6174047;22;20427;-65
2022/09/30 06:15:16;;;;;;;3.33;3.13;;;;;;;6.28;100.00;94958.66;6149122;23;20092;-66
2022/09/30 06:17:42;;;;;;;4.32;3.53;;;;;;;6.34;100.00;94962.53;6174524;23;20013;-65
2022/09/30 06:20:09;;;;;;;3.97;3.67;;;;;;;6.40;100.00;94969.84;6176123;23;20005;-65
2022/09/30 06:22:34;;;;;;;3.90;3.60;;;;;;;6.43;100.00;94970.41;6175888;23;20005;-66
2022/09/30 06:25:04;;;;;;;5.00;3.47;;;;;;;6.48;100.00;94959.53;6176156;23;20378;-67
2022/09/30 06:27:32;;;;;;;3.63;3.42;;;;;;;6.55;100.00;94970.28;6175920;23;20439;-66
2022/09/30 06:29:57;;;;;;;6.53;5.43;;;;;;;6.61;100.00;94969.72;6176345;23;19997;-62
2022/09/30 06:32:24;;;;;;;6.38;5.78;;;;;;;6.65;100.00;94978.16;6176395;23;20016;-66
2022/09/30 06:34:50;;;;;;;5.03;4.63;;;;;;;6.69;100.00;94979.53;6176546;23;20005;-66
2022/09/30 06:37:17;;;;;;;4.90;4.50;;;;;;;6.75;100.00;94976.38;6175900;23;20435;-67
2022/09/30 06:39:43;;;;;;;17.10;9.07;;;;;;;6.78;100.00;94975.28;6176147;23;20005;-67
2022/09/30 06:42:10;;;;;;;48.60;30.65;;;;;;;6.80;100.00;94968.09;6176154;23;20103;-66
2022/09/30 06:44:36;;;;;;;16.98;14.13;;;;;;;6.86;100.00;94978.88;6176278;23;20043;-67
2022/09/30 06:47:01;;;;;;;8.98;6.47;;;;;;;6.92;100.00;94980.13;6175559;23;20005;-59
2022/09/30 06:49:27;;;;;;;6.68;4.85;;;;;;;6.95;100.00;94985.06;6176591;23;20088;-64
2022/09/30 06:51:52;;;;;;;5.90;4.70;;;;;;;6.94;100.00;94985.19;6176254;23;19997;-59
2022/09/30 06:54:19;;;;;;;4.60;4.20;;;;;;;6.98;100.00;94983.97;6175148;23;20477;-60
2022/09/30 06:56:46;;;;;;;4.22;3.80;;;;;;;7.04;100.00;94993.88;6172297;23;20000;-59
2022/09/30 06:59:14;;;;;;;3.65;3.35;;;;;;;7.06;100.00;94993.72;6174763;23;20039;-59
2022/09/30 07:01:41;;;;;;;3.72;3.20;;;;;;;7.12;100.00;94996.63;6175525;23;20501;-60
2022/09/30 07:04:08;;;;;;;3.50;3.30;;;;;;;7.14;100.00;94991.28;6175494;23;20603;-60
2022/09/30 07:06:34;;;;;;;4.35;3.13;;;;;;;7.17;100.00;95001.47;6175403;23;20393;-66
2022/09/30 07:08:59;;;;;;;3.90;3.10;;;;;;;7.19;100.00;95004.78;6174243;23;20009;-61
2022/09/30 07:11:25;;;;;;;3.65;3.35;;;;;;;7.24;100.00;95009.59;6175481;23;19996;-61
2022/09/30 07:13:50;;;;;;;3.70;2.70;;;;;;;7.28;100.00;95013.59;6175175;23;20616;-61
2022/09/30 07:16:17;;;;;;;5.10;2.70;;;;;;;7.25;100.00;95013.88;6176727;22;20001;-61
2022/09/30 07:18:44;;;;;;;2.70;2.50;;;;;;;7.21;100.00;95008.06;6176596;23;20012;-61
2022/09/30 07:21:12;;;;;;;3.10;2.80;;;;;;;7.21;100.00;95005.47;6175947;23;20454;-61
2022/09/30 07:23:46;;;;;;;2.88;2.67;;;;;;;7.23;100.00;95013.19;6175727;23;20013;-61
2022/09/30 07:26:13;;;;;;;2.63;2.42;;;;;;;7.26;100.00;95007.66;6176337;23;20001;-61
2022/09/30 07:28:39;;;;;;;2.80;2.67;;;;;;;7.28;100.00;95017.03;6175232;23;19997;-64
2022/09/30 07:31:31;;;;;;;2.83;2.63;;;;;;;7.30;100.00;95014.28;6176895;23;20032;-63
2022/09/30 07:33:56;;;;;;;3.22;3.00;;;;;;;7.34;100.00;95025.31;6175633;23;20009;-63
2022/09/30 07:36:28;;;;;;;3.17;2.88;;;;;;;7.34;100.00;95023.50;6175292;23;20340;-63
2022/09/30 07:38:55;;;;;;;3.00;2.80;;;;;;;7.35;100.00;95030.41;6149255;22;20387;-63
2022/09/30 07:41:26;;;;;;;5.15;3.08;;;;;;;7.38;100.00;95026.69;6175978;23;20384;-63
2022/09/30 07:43:54;;;;;;;3.47;3.28;;;;;;;7.46;100.00;95026.81;6176214;22;19997;-62
2022/09/30 07:46:25;;;;;;;2.63;2.45;;;;;;;7.49;100.00;95034.38;6175203;23;20083;-61
2022/09/30 07:48:56;;;;;;;2.30;2.20;;;;;;;7.52;100.00;95038.53;6176561;23;20482;-62
2022/09/30 07:51:34;;;;;;;6.28;2.60;;;;;;;7.51;100.00;95044.75;6176634;23;20443;-62
2022/09/30 07:54:04;;;;;;;2.65;2.45;;;;;;;7.51;100.00;95048.16;6176565;23;20009;-62
2022/09/30 07:56:31;;;;;;;3.03;2.83;;;;;;;7.57;100.00;95044.16;6175520;23;20009;-62
2022/09/30 07:58:59;;;;;;;3.00;2.70;;;;;;;7.63;100.00;95043.63;6176285;23;20005;-62
2022/09/30 08:01:26;;;;;;;2.60;2.40;;;;;;;7.66;100.00;95045.97;6176185;23;20020;-62
2022/09/30 08:03:54;;;;;;;3.20;3.00;;;;;;;7.63;100.00;95051.50;6177041;23;20001;-60
2022/09/30 08:06:21;;;;;;;5.57;3.00;;;;;;;7.69;100.00;95065.81;6176753;23;20011;-57
2022/09/30 08:08:46;;;;;;;4.07;3.70;;;;;;;7.78;100.00;95062.38;6176590;23;20004;-71
2022/09/30 08:11:15;;;;;;;5.13;4.72;;;;;;;7.91;100.00;95062.06;6176737;23;20008;-72
2022/09/30 08:13:41;;;;;;;5.38;4.88;;;;;;;7.99;100.00;95061.38;6176713;23;20398;-72
2022/09/30 08:16:07;;;;;;;6.57;6.00;;;;;;;8.05;100.00;95071.28;6175248;23;19997;-72
2022/09/30 08:18:32;;;;;;;6.30;5.72;;;;;;;8.08;100.00;95071.00;6175119;23;20055;-72
2022/09/30 08:21:05;;;;;;;6.88;6.28;;;;;;;8.11;100.00;95077.75;6175322;23;20005;-72
2022/09/30 08:23:31;;;;;;;6.53;6.03;;;;;;;8.12;100.00;95076.78;6174561;22;20001;-65
2022/09/30 08:26:09;;;;;;;5.55;5.13;;;;;;;8.16;100.00;95086.00;6176299;23;20050;-67
2022/09/30 08:28:36;;;;;;;5.53;5.03;;;;;;;8.23;100.00;95092.34;6176215;23;20013;-67
2022/09/30 08:31:11;;;;;;;5.63;5.03;;;;;;;8.35;100.00;95098.25;6174957;22;20001;-67
2022/09/30 08:33:38;;;;;;;7.30;6.63;;;;;;;8.45;100.00;95104.31;6175358;23;20008;-66
2022/09/30 08:36:09;;;;;;;5.80;5.35;;;;;;;8.48;100.00;95111.03;6175808;23;20005;-67
2022/09/30 08:38:35;;;;;;;4.90;4.60;;;;;;;8.53;100.00;95114.13;6176118;23;20001;-68
2022/09/30 08:41:00;;;;;;;5.47;4.90;;;;;;;8.66;100.00;95118.19;6176260;23;20072;-68
2022/09/30 08:43:37;;;;;;;5.30;4.90;;;;;;;8.72;100.00;95109.72;6175404;23;20101;-67
2022/09/30 08:46:15;;;;;;;6.22;4.40;;;;;;;8.78;100.00;95119.69;6175283;23;20050;-67
2022/09/30 08:48:52;;;;;;;4.32;4.03;;;;;;;8.91;100.00;95123.75;6175329;23;20013;-68
2022/09/30 08:51:40;;;;;;;4.40;3.90;;;;;;;9.04;100.00;95129.50;6175147;23;20035;-68
2022/09/30 08:54:13;;;;;;;4.60;4.25;;;;;;;8.99;100.00;95134.38;6175514;23;20020;-67
2022/09/30 08:56:38;;;;;;;5.93;4.13;;;;;;;9.15;100.00;95138.97;6175466;22;20038;-67
2022/09/30 08:59:13;;;;;;;5.68;4.10;;;;;;;9.25;100.00;95144.19;6174322;23;20513;-67
2022/09/30 09:01:45;;;;;;;4.35;3.78;;;;;;;9.37;100.00;95140.34;6173915;23;20007;-73
2022/09/30 09:04:12;;;;;;;4.32;3.97;;;;;;;9.45;100.00;95143.09;6175409;23;20036;-63
2022/09/30 09:06:38;;;;;;;4.32;3.45;;;;;;;9.54;100.00;95144.00;6174961;23;20004;-61
2022/09/30 09:09:09;;;;;;;4.20;3.88;;;;;;;9.65;100.00;95153.47;6175323;23;19997;-60
2022/09/30 09:12:02;;;;;;;3.63;3.42;;;;;;;9.82;100.00;95159.69;6174669;23;20001;-61
2022/09/30 09:14:57;;;;;;;3.67;3.38;;;;;;;9.83;100.00;95161.34;6175905;23;20005;-61
2022/09/30 09:17:52;;;;;;;3.60;3.40;;;;;;;9.82;100.00;95167.59;6173547;23;20040;-61
2022/09/30 09:20:21;;;;;;;3.50;3.30;;;;;;;9.81;100.00;95163.31;6176023;23;20001;-73
2022/09/30 09:22:49;;;;;;;3.50;3.28;;;;;;;9.99;100.00;95158.03;6176773;23;20008;-72
2022/09/30 09:25:21;;;;;;;3.55;3.25;;;;;;;10.22;100.00;95169.91;6176406;23;20761;-61
2022/09/30 09:27:56;;;;;;;4.72;3.33;;;;;;;10.18;99.18;95172.84;6175922;23;20084;-60
2022/09/30 09:30:42;;;;;;;2.97;2.78;;;;;;;10.17;96.96;95170.34;6176450;23;20005;-61
2022/09/30 09:33:21;;;;;;;3.25;2.95;;;;;;;10.15;100.00;95172.31;6176280;23;20001;-61
2022/09/30 09:36:07;;;;;;;2.80;2.65;;;;;;;10.13;100.00;95182.16;6176045;23;20001;-61
2022/09/30 09:38:56;;;;;;;2.95;2.70;;;;;;;10.18;97.78;95175.47;6175879;22;20005;-61
2022/09/30 09:41:50;;;;;;;3.95;3.70;;;;;;;10.22;100.00;95185.69;6176422;23;20043;-67
2022/09/30 09:44:43;;;;;;;4.00;3.70;;;;;;;10.30;100.00;95183.94;6176453;23;20328;-64
2022/09/30 09:47:16;;;;;;;4.38;4.07;;;;;;;10.35;100.00;95187.91;6175936;23;20005;-63
2022/09/30 09:50:04;;;;;;;3.03;2.83;;;;;;;10.37;96.14;95184.13;6175415;23;20005;-64
2022/09/30 09:52:54;;;;;;;2.83;2.63;;;;;;;10.33;94.28;95188.06;6175949;23;20005;-64
2022/09/30 09:55:21;;;;;;;5.35;3.15;;;;;;;10.36;95.93;95200.09;6176298;23;20577;-64
2022/09/30 09:57:47;;;;;;;3.50;3.20;;;;;;;10.49;96.14;95212.88;6175277;23;20023;-64
2022/09/30 10:03:25;;;;;;;4.50;4.10;;;;;;;10.62;94.91;95212.47;6175506;23;20020;-73
2022/09/30 10:06:03;;;;;;;4.47;4.07;;;;;;;10.55;91.82;95213.09;6176283;23;20009;-73
2022/09/30 10:08:30;;;;;;;2.60;2.40;;;;;;;10.43;91.78;95216.94;6175531;23;20088;-73
2022/09/30 10:11:02;;;;;;;4.90;4.32;;;;;;;10.24;93.16;95208.22;6175979;23;20001;-74
2022/09/30 10:13:36;;;;;;;5.65;4.78;;;;;;;10.15;93.99;95211.75;6175842;22;20658;-73
2022/09/30 10:16:02;;;;;;;3.80;2.65;;;;;;;10.22;92.07;95220.69;6174399;23;20001;-73
2022/09/30 10:18:31;;;;;;;4.93;4.30;;;;;;;10.18;92.26;95227.25;6175263;23;20078;-65
2022/09/30 10:20:59;;;;;;;5.53;4.25;;;;;;;10.11;94.88;95223.56;6175824;23;20021;-66
2022/09/30 10:23:36;;;;;;;10.77;4.38;;;;;;;10.10;92.67;95222.72;6149042;23;20080;-65
2022/09/30 10:26:14;;;;;;;6.60;3.65;;;;;;;9.98;93.27;95222.13;6175877;23;20024;-65
2022/09/30 10:28:50;;;;;;;3.13;2.92;;;;;;;9.92;95.47;95224.53;6175482;23;20032;-66
2022/09/30 10:31:27;;;;;;;4.45;2.55;;;;;;;9.85;95.85;95225.13;6176417;23;20005;-67
2022/09/30 10:34:07;;;;;;;3.50;3.20;;;;;;;9.72;96.83;95227.28;6178095;22;20020;-65
2022/09/30 10:36:35;;;;;;;6.80;3.70;;;;;;;9.72;97.24;95220.22;6176298;23;20123;-65
2022/09/30 10:39:27;;;;;;;2.15;2.03;;;;;;;9.85;94.74;95227.75;6176005;22;20009;-65
2022/09/30 10:42:24;;;;;;;2.72;2.53;;;;;;;9.99;93.98;95231.66;6175844;23;20072;-66
2022/09/30 10:45:24;;;;;;;3.17;2.72;;;;;;;10.21;96.39;95239.28;6176419;23;20009;-66
2022/09/30 10:47:53;;;;;;;2.40;2.20;;;;;;;10.35;95.44;95235.28;6175812;23;20036;-64
2022/09/30 10:50:26;;;;;;;2.22;2.13;;;;;;;10.50;95.73;95238.22;6175610;23;20013;-65
2022/09/30 10:52:59;;;;;;;1.92;1.83;;;;;;;10.51;93.28;95237.25;6175582;23;20005;-64
2022/09/30 10:55:33;;;;;;;3.45;2.40;;;;;;;10.52;91.81;95234.47;6175563;23;20025;-65
2022/09/30 10:58:53;;;;;;;1.90;1.80;;;;;;;10.42;90.22;95237.19;6175333;23;20004;-59
2022/09/30 11:01:39;;;;;;;1.98;1.77;;;;;;;10.43;91.81;95241.47;6177609;23;20088;-65
2022/09/30 11:04:13;;;;;;;2.35;2.25;;;;;;;10.53;95.20;95236.13;6174696;23;20009;-65
2022/09/30 11:06:39;;;;;;;2.30;2.10;;;;;;;10.60;96.79;95237.16;6175715;23;20009;-64
2022/09/30 11:09:43;;;;;;;2.47;2.28;;;;;;;10.66;95.72;95234.88;6175877;23;20297;-64
2022/09/30 11:12:30;;;;;;;3.15;2.13;;;;;;;10.74;97.51;95237.59;6176918;23;20001;-65
2022/09/30 11:15:27;;;;;;;2.72;2.53;;;;;;;10.86;97.22;95236.34;6176517;23;20024;-65
2022/09/30 11:18:04;;;;;;;3.35;2.70;;;;;;;11.10;96.56;95239.28;6175486;23;20009;-55
2022/09/30 11:20:46;;;;;;;2.42;2.22;;;;;;;11.18;95.63;95234.06;6175646;23;20005;-60
2022/09/30 11:23:14;;;;;;;3.85;2.67;;;;;;;11.18;97.06;95240.16;6175644;23;20063;-60
2022/09/30 11:25:53;;;;;;;2.97;2.78;;;;;;;11.41;94.15;95249.31;6175913;23;20027;-61
2022/09/30 11:28:56;;;;;;;2.13;2.03;;;;;;;11.32;89.67;95246.66;6175540;23;20007;-61
2022/09/30 11:31:27;;;;;;;1.90;1.80;;;;;;;11.29;91.44;95244.34;6175510;23;20012;-61
2022/09/30 11:34:22;;;;;;;2.08;1.98;;;;;;;11.59;86.75;95242.13;6176022;23;20008;-60
2022/09/30 11:37:20;;;;;;;3.38;2.38;;;;;;;11.71;90.98;95247.09;6176489;23;20009;-65
2022/09/30 11:40:10;;;;;;;1.63;1.52;;;;;;;11.67;89.80;95243.16;6175404;23;20016;-60
2022/09/30 11:42:47;;;;;;;1.90;1.80;;;;;;;11.69;91.59;95238.53;6175654;23;20025;-59
2022/09/30 11:45:25;;;;;;;2.03;1.92;;;;;;;11.88;91.92;95240.91;6174302;23;20040;-59
2022/09/30 11:48:15;;;;;;;2.15;1.77;;;;;;;11.81;89.18;95245.19;6174677;23;20086;-59
2022/09/30 11:50:56;;;;;;;2.45;2.25;;;;;;;11.60;88.68;95240.31;6175033;23;20012;-59
2022/09/30 11:53:54;;;;;;;1.70;1.60;;;;;;;11.45;89.25;95233.03;6176672;23;19997;-59
2022/09/30 11:56:37;;;;;;;2.00;1.90;;;;;;;11.59;87.46;95246.56;6177057;22;20020;-62
2022/09/30 11:59:12;;;;;;;2.42;2.13;;;;;;;11.67;89.56;95249.25;6176831;23;20068;-66
2022/09/30 12:01:42;;;;;;;2.05;1.95;;;;;;;11.83;86.55;95252.94;6176922;23;20089;-67